Time;durP1;ratioP1;P1;durP2;ratioP2;P2;SDS_P1;SDS_P2;PMS_P1;PMS_P2;Temp;Humidity;BMP_temperature;BMP_pressure;BME280_temperature;BME280_humidity;BME280_pressure;Samples;Min_cycle;Max_cycle;Signal;HPM_P1;HPM_P2
2022/07/02 00:00:59;;;;;;;1.50;1.35;;;;;;;;;;5078013;28;20681;-83
2022/07/02 00:03:33;;;;;;;2.28;1.15;;;;;;;;;;5076402;28;20288;-84
2022/07/02 00:06:04;;;;;;;1.17;1.17;;;;;;;;;;5076297;28;20201;-83
2022/07/02 00:08:31;;;;;;;1.38;1.27;;;;;;;;;;5077405;28;20642;-83
2022/07/02 00:11:01;;;;;;;1.52;1.42;;;;;;;;;;5076965;28;20200;-83
2022/07/02 00:13:29;;;;;;;1.55;1.45;;;;;;;;;;5077059;28;20225;-81
2022/07/02 00:15:58;;;;;;;1.35;1.25;;;;;;;;;;5077124;28;20229;-83
2022/07/02 00:18:26;;;;;;;2.53;1.42;;;;;;;;;;5076122;28;20326;-82
2022/07/02 00:20:54;;;;;;;1.50;1.40;;;;;;;;;;5077017;28;20243;-83
2022/07/02 00:23:22;;;;;;;1.42;1.33;;;;;;;;;;5076841;28;20197;-83
2022/07/02 00:25:55;;;;;;;1.23;1.13;;;;;;;;;;5077214;28;20266;-83
2022/07/02 00:28:25;;;;;;;1.10;1.10;;;;;;;;;;5076600;28;20252;-83
2022/07/02 00:30:53;;;;;;;1.70;1.05;;;;;;;;;;5077463;28;20228;-82
2022/07/02 00:33:25;;;;;;;1.50;1.40;;;;;;;;;;5076093;28;20395;-81
2022/07/02 00:35:52;;;;;;;1.50;1.40;;;;;;;;;;5077330;28;20185;-82
2022/07/02 00:38:20;;;;;;;0.80;0.80;;;;;;;;;;5076681;28;20252;-83
2022/07/02 00:40:48;;;;;;;2.67;0.95;;;;;;;;;;5076636;28;20643;-81
2022/07/02 00:43:16;;;;;;;0.73;0.73;;;;;;;;;;5076338;28;20319;-83
2022/07/02 00:45:44;;;;;;;1.00;1.00;;;;;;;;;;5076498;28;20239;-81
2022/07/02 00:48:13;;;;;;;0.75;0.75;;;;;;;;;;5076258;28;20650;-83
2022/07/02 00:50:42;;;;;;;1.00;1.00;;;;;;;;;;5076746;28;20229;-82
2022/07/02 00:53:09;;;;;;;0.90;0.90;;;;;;;;;;5076458;28;20237;-82
2022/07/02 00:55:37;;;;;;;0.80;0.80;;;;;;;;;;5076573;28;20252;-82
2022/07/02 00:58:05;;;;;;;1.17;1.08;;;;;;;;;;5076754;28;20260;-83
2022/07/02 01:00:32;;;;;;;0.80;0.77;;;;;;;;;;5076384;28;20236;-83
2022/07/02 01:03:01;;;;;;;1.67;1.58;;;;;;;;;;5076102;28;20237;-80
2022/07/02 01:05:29;;;;;;;0.98;0.98;;;;;;;;;;5076819;28;20232;-81
2022/07/02 01:10:47;;;;;;;0.82;0.82;;;;;;;;;;5076058;28;20715;-82
2022/07/02 01:13:16;;;;;;;1.00;1.00;;;;;;;;;;5075532;28;20212;-81
2022/07/02 01:15:43;;;;;;;2.50;1.08;;;;;;;;;;5074756;28;20263;-82
2022/07/02 01:18:17;;;;;;;0.95;0.95;;;;;;;;;;5076292;28;20653;-81
2022/07/02 01:20:45;;;;;;;1.33;1.02;;;;;;;;;;5075902;28;20568;-83
2022/07/02 01:23:14;;;;;;;0.93;0.93;;;;;;;;;;5074364;28;20293;-82
2022/07/02 01:25:41;;;;;;;0.98;0.98;;;;;;;;;;5075576;28;20199;-84
2022/07/02 01:28:09;;;;;;;0.80;0.80;;;;;;;;;;5075231;28;20227;-83
2022/07/02 01:30:36;;;;;;;1.25;0.93;;;;;;;;;;5075447;28;20241;-83
2022/07/02 01:33:04;;;;;;;1.52;1.02;;;;;;;;;;5075746;28;20271;-83
2022/07/02 01:35:31;;;;;;;1.00;1.00;;;;;;;;;;5075501;28;20267;-83
2022/07/02 01:37:59;;;;;;;0.95;0.95;;;;;;;;;;5075993;28;20256;-84
2022/07/02 01:40:28;;;;;;;1.48;0.93;;;;;;;;;;5076151;28;20232;-86
2022/07/02 01:42:55;;;;;;;0.80;0.80;;;;;;;;;;5076777;28;20619;-85
2022/07/02 01:45:23;;;;;;;0.80;0.80;;;;;;;;;;5076596;28;20215;-85
2022/07/02 01:47:51;;;;;;;0.77;0.77;;;;;;;;;;5077804;28;20255;-85
2022/07/02 01:50:18;;;;;;;0.93;0.80;;;;;;;;;;5077149;28;20205;-85
2022/07/02 01:52:46;;;;;;;1.00;1.00;;;;;;;;;;5076248;28;20569;-85
2022/07/02 01:55:13;;;;;;;1.23;0.80;;;;;;;;;;5077732;28;20267;-86
2022/07/02 01:57:42;;;;;;;0.77;0.77;;;;;;;;;;5077197;28;20220;-83
2022/07/02 02:00:13;;;;;;;0.73;0.73;;;;;;;;;;5077644;28;20208;-86
2022/07/02 02:02:41;;;;;;;0.80;0.80;;;;;;;;;;5076768;28;20178;-86
2022/07/02 02:05:09;;;;;;;0.75;0.75;;;;;;;;;;5076539;28;20228;-84
2022/07/02 02:07:37;;;;;;;0.73;0.73;;;;;;;;;;5077035;28;20249;-85
2022/07/02 02:10:06;;;;;;;1.10;1.10;;;;;;;;;;5076215;28;20213;-86
2022/07/02 02:12:33;;;;;;;2.28;1.20;;;;;;;;;;5076179;28;20288;-86
2022/07/02 02:15:02;;;;;;;1.45;0.93;;;;;;;;;;5076077;28;20733;-85
2022/07/02 02:17:30;;;;;;;3.50;1.27;;;;;;;;;;5076211;28;20330;-85
2022/07/02 02:19:57;;;;;;;0.77;0.75;;;;;;;;;;5076278;28;20252;-86
2022/07/02 02:22:25;;;;;;;0.77;0.77;;;;;;;;;;5075420;28;20245;-86
2022/07/02 02:24:53;;;;;;;2.30;1.00;;;;;;;;;;5077421;28;20201;-86
2022/07/02 02:27:20;;;;;;;1.25;1.15;;;;;;;;;;5077485;28;20232;-86
2022/07/02 02:29:47;;;;;;;0.90;0.90;;;;;;;;;;5076525;28;20235;-85
2022/07/02 02:32:17;;;;;;;1.02;1.02;;;;;;;;;;5075950;28;20698;-85
2022/07/02 02:34:44;;;;;;;1.20;1.10;;;;;;;;;;5075809;28;20225;-86
2022/07/02 02:37:12;;;;;;;0.98;0.90;;;;;;;;;;5076651;28;20269;-85
2022/07/02 02:39:41;;;;;;;1.00;1.00;;;;;;;;;;5079058;28;20246;-85
2022/07/02 02:42:08;;;;;;;1.05;1.05;;;;;;;;;;5079155;28;20209;-87
2022/07/02 02:44:37;;;;;;;0.65;0.65;;;;;;;;;;5079078;28;20229;-85
2022/07/02 02:47:05;;;;;;;0.70;0.70;;;;;;;;;;5079432;28;20268;-85
2022/07/02 02:49:34;;;;;;;0.60;0.60;;;;;;;;;;5078962;28;20252;-86
2022/07/02 02:52:01;;;;;;;0.50;0.50;;;;;;;;;;5078466;28;20209;-86
2022/07/02 02:54:29;;;;;;;0.60;0.60;;;;;;;;;;5079772;28;20229;-86
2022/07/02 02:56:56;;;;;;;0.60;0.60;;;;;;;;;;5078163;28;20259;-86
2022/07/02 02:59:24;;;;;;;0.63;0.63;;;;;;;;;;5078854;28;20244;-85
2022/07/02 03:01:51;;;;;;;0.73;0.73;;;;;;;;;;5077932;28;20610;-86
2022/07/02 03:04:19;;;;;;;0.70;0.70;;;;;;;;;;5078647;28;20208;-86
2022/07/02 03:06:48;;;;;;;1.15;0.70;;;;;;;;;;5078484;28;20654;-85
2022/07/02 03:09:15;;;;;;;0.57;0.57;;;;;;;;;;5078500;28;20256;-85
2022/07/02 03:11:43;;;;;;;0.85;0.55;;;;;;;;;;5077944;28;20236;-86
2022/07/02 03:14:11;;;;;;;0.60;0.60;;;;;;;;;;5078490;28;20224;-84
2022/07/02 03:16:38;;;;;;;0.70;0.70;;;;;;;;;;5078590;28;20227;-84
2022/07/02 03:19:06;;;;;;;0.77;0.77;;;;;;;;;;5078245;28;20237;-85
2022/07/02 03:21:33;;;;;;;1.63;0.70;;;;;;;;;;5078775;28;20236;-83
2022/07/02 03:24:02;;;;;;;0.82;0.82;;;;;;;;;;5079401;28;20232;-85
2022/07/02 03:26:29;;;;;;;2.17;0.80;;;;;;;;;;5079372;28;20228;-85
2022/07/02 03:28:57;;;;;;;0.90;0.90;;;;;;;;;;5079119;28;20275;-85
2022/07/02 03:31:24;;;;;;;0.93;0.80;;;;;;;;;;5080006;28;20260;-84
2022/07/02 03:33:52;;;;;;;0.70;0.70;;;;;;;;;;5079014;28;20659;-85
2022/07/02 03:36:19;;;;;;;1.10;1.00;;;;;;;;;;5079136;28;20264;-85
2022/07/02 03:38:47;;;;;;;1.00;1.00;;;;;;;;;;5077296;28;20227;-85
2022/07/02 03:41:16;;;;;;;1.15;0.90;;;;;;;;;;5078788;28;20240;-85
2022/07/02 03:43:43;;;;;;;0.80;0.80;;;;;;;;;;5078719;28;20265;-85
2022/07/02 03:46:12;;;;;;;0.93;0.90;;;;;;;;;;5079084;28;20228;-85
2022/07/02 03:48:40;;;;;;;0.90;0.90;;;;;;;;;;5078648;28;20217;-85
2022/07/02 03:51:07;;;;;;;0.70;0.70;;;;;;;;;;5078434;28;20244;-85
2022/07/02 03:53:35;;;;;;;0.70;0.70;;;;;;;;;;5078651;28;20204;-83
2022/07/02 03:56:03;;;;;;;1.10;0.90;;;;;;;;;;5078012;28;20247;-85
2022/07/02 03:58:32;;;;;;;0.60;0.60;;;;;;;;;;5078871;28;20252;-84
2022/07/02 04:01:00;;;;;;;0.50;0.50;;;;;;;;;;5078305;28;20274;-83
2022/07/02 04:03:27;;;;;;;0.70;0.70;;;;;;;;;;5078047;28;20204;-84
2022/07/02 04:05:55;;;;;;;0.70;0.70;;;;;;;;;;5078695;28;20287;-86
2022/07/02 04:08:22;;;;;;;0.60;0.60;;;;;;;;;;5078531;28;20221;-84
2022/07/02 04:10:50;;;;;;;0.77;0.77;;;;;;;;;;5079428;28;20212;-85
2022/07/02 04:13:17;;;;;;;0.65;0.65;;;;;;;;;;5079115;28;20236;-84
2022/07/02 04:15:46;;;;;;;1.05;0.98;;;;;;;;;;5080285;28;20311;-85
2022/07/02 04:18:14;;;;;;;1.00;1.00;;;;;;;;;;5079142;28;20300;-84
2022/07/02 04:20:41;;;;;;;1.00;1.00;;;;;;;;;;5079764;28;20300;-84
2022/07/02 04:23:09;;;;;;;1.08;1.08;;;;;;;;;;5080596;28;20204;-85
2022/07/02 04:25:37;;;;;;;1.95;1.55;;;;;;;;;;5079746;28;20251;-85
2022/07/02 04:28:07;;;;;;;1.30;1.20;;;;;;;;;;5080062;28;20247;-85
2022/07/02 04:30:34;;;;;;;1.13;1.08;;;;;;;;;;5081021;28;20201;-84
2022/07/02 04:33:03;;;;;;;1.17;1.17;;;;;;;;;;5080917;28;20197;-84
2022/07/02 04:35:31;;;;;;;1.02;1.02;;;;;;;;;;5080703;28;20232;-85
2022/07/02 04:37:59;;;;;;;1.40;1.30;;;;;;;;;;5081274;28;20232;-85
2022/07/02 04:40:26;;;;;;;1.40;1.17;;;;;;;;;;5080808;28;20205;-85
2022/07/02 04:42:54;;;;;;;1.40;1.30;;;;;;;;;;5079864;28;20239;-86
2022/07/02 04:45:21;;;;;;;1.00;1.00;;;;;;;;;;5080755;28;20624;-85
2022/07/02 04:47:49;;;;;;;1.15;1.00;;;;;;;;;;5079469;28;20220;-85
2022/07/02 04:50:18;;;;;;;0.80;0.80;;;;;;;;;;5077498;28;20255;-85
2022/07/02 04:52:48;;;;;;;1.15;1.15;;;;;;;;;;5060017;28;20629;-85
2022/07/02 04:55:16;;;;;;;1.38;1.27;;;;;;;;;;5060664;28;20208;-86
2022/07/02 04:57:43;;;;;;;1.15;1.15;;;;;;;;;;5060282;28;20317;-85
2022/07/02 05:00:13;;;;;;;1.35;1.33;;;;;;;;;;5060548;28;20206;-84
2022/07/02 05:02:40;;;;;;;1.30;1.20;;;;;;;;;;5062127;28;20720;-86
2022/07/02 05:05:08;;;;;;;2.92;1.50;;;;;;;;;;5062251;28;20201;-84
2022/07/02 05:07:38;;;;;;;1.40;1.30;;;;;;;;;;5060804;28;20222;-86
2022/07/02 05:10:06;;;;;;;1.27;1.17;;;;;;;;;;5059903;28;20206;-86
2022/07/02 05:12:34;;;;;;;1.63;1.52;;;;;;;;;;5059677;28;20205;-86
2022/07/02 05:15:01;;;;;;;2.47;1.52;;;;;;;;;;5060246;28;20619;-85
2022/07/02 05:17:29;;;;;;;1.60;1.50;;;;;;;;;;5059485;28;20268;-83
2022/07/02 05:19:56;;;;;;;1.88;1.55;;;;;;;;;;5062409;28;20746;-84
2022/07/02 05:22:24;;;;;;;2.10;1.90;;;;;;;;;;5080658;28;20201;-84
2022/07/02 05:24:53;;;;;;;1.60;1.48;;;;;;;;;;5080973;28;20208;-83
2022/07/02 05:27:20;;;;;;;1.20;1.20;;;;;;;;;;5081480;28;20261;-84
2022/07/02 05:29:48;;;;;;;1.42;1.33;;;;;;;;;;5080855;28;20296;-84
2022/07/02 05:32:15;;;;;;;2.10;1.90;;;;;;;;;;5081053;28;20201;-82
2022/07/02 05:34:43;;;;;;;2.92;2.35;;;;;;;;;;5081260;28;20239;-83
2022/07/02 05:37:10;;;;;;;2.03;1.80;;;;;;;;;;5081410;28;20259;-83
2022/07/02 05:39:38;;;;;;;2.10;1.90;;;;;;;;;;5080820;28;20204;-83
2022/07/02 05:42:08;;;;;;;1.60;1.40;;;;;;;;;;5080178;28;20227;-84
2022/07/02 05:44:35;;;;;;;1.52;1.42;;;;;;;;;;5080830;28;20268;-84
2022/07/02 05:47:03;;;;;;;1.75;1.63;;;;;;;;;;5078769;28;20664;-84
2022/07/02 05:49:31;;;;;;;1.58;1.48;;;;;;;;;;5079722;28;20653;-84
2022/07/02 05:51:58;;;;;;;2.00;1.27;;;;;;;;;;5078472;28;20637;-85
2022/07/02 05:54:26;;;;;;;3.05;1.77;;;;;;;;;;5080526;28;20716;-85
2022/07/02 05:56:53;;;;;;;1.92;1.83;;;;;;;;;;5080274;28;20260;-86
2022/07/02 05:59:22;;;;;;;1.75;1.60;;;;;;;;;;5080180;28;20307;-85
2022/07/02 06:01:50;;;;;;;1.30;1.20;;;;;;;;;;5081474;28;20211;-85
2022/07/02 06:04:18;;;;;;;1.40;1.30;;;;;;;;;;5080925;28;20250;-85
2022/07/02 06:09:31;;;;;;;1.52;1.42;;;;;;;;;;5078996;28;20255;-85
2022/07/02 06:11:58;;;;;;;1.92;1.40;;;;;;;;;;5080435;28;20727;-85
2022/07/02 06:14:27;;;;;;;2.20;2.00;;;;;;;;;;5084878;28;20201;-85
2022/07/02 06:16:55;;;;;;;1.65;1.52;;;;;;;;;;5085497;28;20589;-85
2022/07/02 06:19:23;;;;;;;2.35;2.25;;;;;;;;;;5085111;28;20236;-85
2022/07/02 06:21:50;;;;;;;1.40;1.30;;;;;;;;;;5085152;28;20208;-84
2022/07/02 06:24:18;;;;;;;1.40;1.30;;;;;;;;;;5085712;28;20201;-85
2022/07/02 06:26:46;;;;;;;1.55;1.45;;;;;;;;;;5085888;28;20316;-84
2022/07/02 06:29:13;;;;;;;3.13;2.08;;;;;;;;;;5086273;28;20294;-84
2022/07/02 06:31:42;;;;;;;2.15;1.98;;;;;;;;;;5085730;28;20254;-82
2022/07/02 06:34:10;;;;;;;1.67;1.58;;;;;;;;;;5087302;28;20593;-85
2022/07/02 06:36:37;;;;;;;14.25;1.65;;;;;;;;;;5086799;28;20205;-86
2022/07/02 06:39:05;;;;;;;1.75;1.40;;;;;;;;;;5086428;28;20228;-84
2022/07/02 06:44:17;;;;;;;1.60;1.30;;;;;;;;;;5089060;28;20277;-85
2022/07/02 06:46:46;;;;;;;1.88;1.23;;;;;;;;;;5088174;28;20223;-85
2022/07/02 06:49:13;;;;;;;1.40;1.30;;;;;;;;;;5088584;28;20231;-84
2022/07/02 06:51:41;;;;;;;1.73;1.50;;;;;;;;;;5088925;28;20211;-85
2022/07/02 06:54:09;;;;;;;1.67;1.45;;;;;;;;;;5087992;28;20228;-84
2022/07/02 06:56:36;;;;;;;1.40;1.30;;;;;;;;;;5088849;28;20197;-85
2022/07/02 06:59:04;;;;;;;1.40;1.30;;;;;;;;;;5086694;28;20284;-85
2022/07/02 07:01:32;;;;;;;5.40;2.00;;;;;;;;;;5086186;28;20308;-84
2022/07/02 07:04:01;;;;;;;1.85;1.30;;;;;;;;;;5086195;28;20200;-85
2022/07/02 07:06:28;;;;;;;1.80;1.60;;;;;;;;;;5085959;28;20680;-84
2022/07/02 07:08:56;;;;;;;1.73;1.63;;;;;;;;;;5084986;28;20224;-85
2022/07/02 07:11:24;;;;;;;1.45;1.30;;;;;;;;;;5083022;28;20632;-84
2022/07/02 07:13:51;;;;;;;1.40;1.25;;;;;;;;;;5086083;28;20240;-85
2022/07/02 07:16:19;;;;;;;2.55;2.17;;;;;;;;;;5086599;28;20213;-84
2022/07/02 07:18:48;;;;;;;2.15;1.50;;;;;;;;;;5083986;28;20606;-86
2022/07/02 07:21:16;;;;;;;1.20;1.20;;;;;;;;;;5085226;28;20215;-85
2022/07/02 07:23:44;;;;;;;1.70;1.25;;;;;;;;;;5083290;28;20205;-86
2022/07/02 07:26:11;;;;;;;1.95;1.40;;;;;;;;;;5084055;28;20620;-85
2022/07/02 07:28:39;;;;;;;1.75;1.50;;;;;;;;;;5083668;28;20255;-86
2022/07/02 07:31:07;;;;;;;1.33;1.15;;;;;;;;;;5083426;28;20200;-85
2022/07/02 07:33:34;;;;;;;2.75;1.33;;;;;;;;;;5082767;28;20201;-85
2022/07/02 07:36:02;;;;;;;1.15;1.05;;;;;;;;;;5083883;28;20664;-85
2022/07/02 07:38:31;;;;;;;1.13;0.95;;;;;;;;;;5083108;28;20225;-86
2022/07/02 07:40:58;;;;;;;1.95;1.10;;;;;;;;;;5079662;28;20200;-82
2022/07/02 07:43:26;;;;;;;1.10;1.00;;;;;;;;;;5076410;28;20292;-82
2022/07/02 07:45:53;;;;;;;1.83;1.00;;;;;;;;;;5077217;28;20673;-82
2022/07/02 07:48:21;;;;;;;0.82;0.75;;;;;;;;;;5076364;28;20256;-82
2022/07/02 07:50:48;;;;;;;0.82;0.82;;;;;;;;;;5076709;28;20223;-82
2022/07/02 07:53:16;;;;;;;1.00;1.00;;;;;;;;;;5076245;28;20243;-84
2022/07/02 07:55:46;;;;;;;0.82;0.82;;;;;;;;;;5076708;28;20263;-83
2022/07/02 07:58:14;;;;;;;2.38;1.20;;;;;;;;;;5076620;28;20229;-83
2022/07/02 08:00:41;;;;;;;0.98;0.90;;;;;;;;;;5076657;28;20236;-83
2022/07/02 08:03:09;;;;;;;1.25;0.85;;;;;;;;;;5076418;28;20673;-83
2022/07/02 08:05:37;;;;;;;0.95;0.95;;;;;;;;;;5076454;28;20197;-84
2022/07/02 08:08:07;;;;;;;2.78;1.38;;;;;;;;;;5076540;28;20221;-83
2022/07/02 08:10:36;;;;;;;1.30;1.20;;;;;;;;;;5075035;28;20201;-83
2022/07/02 08:13:05;;;;;;;1.00;1.00;;;;;;;;;;5076658;28;20204;-84
2022/07/02 08:15:32;;;;;;;1.25;1.23;;;;;;;;;;5076393;28;20204;-83
2022/07/02 08:18:00;;;;;;;0.88;0.88;;;;;;;;;;5076665;28;20252;-83
2022/07/02 08:20:27;;;;;;;0.98;0.98;;;;;;;;;;5076299;28;20270;-83
2022/07/02 08:22:55;;;;;;;0.80;0.80;;;;;;;;;;5076356;28;20251;-83
2022/07/02 08:25:23;;;;;;;0.80;0.80;;;;;;;;;;5076464;28;20201;-83
2022/07/02 08:27:50;;;;;;;0.70;0.70;;;;;;;;;;5076149;28;20258;-82
2022/07/02 08:30:19;;;;;;;0.70;0.70;;;;;;;;;;5076239;28;20244;-85
2022/07/02 08:32:47;;;;;;;1.02;1.02;;;;;;;;;;5076381;28;20201;-83
2022/07/02 08:35:14;;;;;;;0.75;0.75;;;;;;;;;;5074161;28;20233;-83
2022/07/02 08:37:42;;;;;;;0.75;0.75;;;;;;;;;;5075643;28;20260;-83
2022/07/02 08:40:11;;;;;;;1.17;0.93;;;;;;;;;;5075760;28;20221;-85
2022/07/02 08:42:42;;;;;;;0.80;0.80;;;;;;;;;;5075626;28;20207;-84
2022/07/02 08:45:12;;;;;;;1.02;0.93;;;;;;;;;;5075571;28;20205;-84
2022/07/02 08:47:43;;;;;;;1.00;0.80;;;;;;;;;;5075960;28;20228;-85
2022/07/02 08:50:11;;;;;;;2.03;1.00;;;;;;;;;;5076001;28;20201;-84
2022/07/02 08:52:40;;;;;;;1.00;0.98;;;;;;;;;;5075649;28;20201;-85
2022/07/02 08:55:09;;;;;;;0.90;0.90;;;;;;;;;;5075523;28;20359;-84
2022/07/02 08:57:39;;;;;;;0.80;0.80;;;;;;;;;;5075370;28;20282;-83
2022/07/02 09:00:09;;;;;;;0.60;0.60;;;;;;;;;;5076433;28;20300;-82
2022/07/02 09:02:37;;;;;;;1.75;0.95;;;;;;;;;;5075721;28;20622;-83
2022/07/02 09:05:08;;;;;;;0.80;0.80;;;;;;;;;;5076301;28;20208;-85
2022/07/02 09:07:36;;;;;;;0.63;0.63;;;;;;;;;;5076080;28;20261;-84
2022/07/02 09:10:06;;;;;;;0.88;0.85;;;;;;;;;;5075390;28;20231;-83
2022/07/02 09:12:33;;;;;;;0.70;0.70;;;;;;;;;;5075762;28;20228;-83
2022/07/02 09:15:01;;;;;;;0.65;0.65;;;;;;;;;;5075752;28;20632;-83
2022/07/02 09:17:29;;;;;;;0.80;0.80;;;;;;;;;;5075169;28;20339;-85
2022/07/02 09:19:56;;;;;;;0.80;0.70;;;;;;;;;;5075213;28;20256;-83
2022/07/02 09:22:35;;;;;;;1.30;0.80;;;;;;;;;;5075528;28;20243;-85
2022/07/02 09:25:12;;;;;;;0.82;0.82;;;;;;;;;;5074754;28;20251;-84
2022/07/02 09:27:40;;;;;;;0.77;0.77;;;;;;;;;;5075147;28;20652;-84
2022/07/02 09:30:12;;;;;;;1.08;1.05;;;;;;;;;;5067957;28;20225;-84
2022/07/02 09:32:43;;;;;;;0.60;0.60;;;;;;;;;;5071737;28;20229;-84
2022/07/02 09:35:19;;;;;;;0.70;0.70;;;;;;;;;;5055340;28;20630;-83
2022/07/02 09:37:48;;;;;;;0.57;0.57;;;;;;;;;;5055338;28;20760;-84
2022/07/02 09:40:17;;;;;;;2.00;1.30;;;;;;;;;;5055992;28;20721;-84
2022/07/02 09:42:48;;;;;;;0.73;0.73;;;;;;;;;;5058724;28;20231;-84
2022/07/02 09:45:17;;;;;;;0.68;0.68;;;;;;;;;;5074435;28;20251;-84
2022/07/02 09:47:49;;;;;;;0.73;0.73;;;;;;;;;;5058147;28;20252;-84
2022/07/02 09:50:19;;;;;;;1.10;0.80;;;;;;;;;;5058692;28;20189;-83
2022/07/02 09:52:51;;;;;;;0.52;0.52;;;;;;;;;;5058352;28;20286;-84
2022/07/02 09:55:24;;;;;;;0.68;0.68;;;;;;;;;;5059993;28;20303;-85
2022/07/02 09:57:54;;;;;;;0.80;0.60;;;;;;;;;;5060065;28;20218;-83
2022/07/02 10:00:22;;;;;;;0.60;0.60;;;;;;;;;;5060329;28;20764;-85
2022/07/02 10:02:55;;;;;;;0.60;0.60;;;;;;;;;;5059990;28;20615;-84
2022/07/02 10:05:28;;;;;;;0.65;0.65;;;;;;;;;;5059891;28;20201;-84
2022/07/02 10:07:59;;;;;;;0.50;0.50;;;;;;;;;;5059423;28;20228;-84
2022/07/02 10:10:34;;;;;;;0.60;0.60;;;;;;;;;;5058639;28;20236;-84
2022/07/02 10:13:01;;;;;;;0.88;0.88;;;;;;;;;;5058882;28;20185;-84
2022/07/02 10:15:31;;;;;;;0.98;0.85;;;;;;;;;;5076396;28;20205;-84
2022/07/02 10:18:01;;;;;;;0.88;0.88;;;;;;;;;;5078784;28;20221;-84
2022/07/02 10:20:31;;;;;;;0.60;0.60;;;;;;;;;;5078891;28;20232;-84
2022/07/02 10:23:02;;;;;;;0.80;0.80;;;;;;;;;;5078646;28;20699;-84
2022/07/02 10:25:30;;;;;;;1.00;1.00;;;;;;;;;;5078730;28;20235;-84
2022/07/02 10:27:58;;;;;;;0.60;0.60;;;;;;;;;;5079129;28;20213;-83
2022/07/02 10:30:28;;;;;;;1.02;0.80;;;;;;;;;;5078640;28;20233;-83
2022/07/02 10:33:06;;;;;;;0.50;0.50;;;;;;;;;;5077734;28;20197;-84
2022/07/02 10:35:35;;;;;;;0.60;0.60;;;;;;;;;;5078568;28;20677;-84
2022/07/02 10:38:04;;;;;;;0.60;0.60;;;;;;;;;;5078598;28;20253;-83
2022/07/02 10:40:31;;;;;;;0.65;0.65;;;;;;;;;;5077880;28;20264;-84
2022/07/02 10:42:59;;;;;;;0.68;0.68;;;;;;;;;;5076427;28;20236;-83
2022/07/02 10:45:27;;;;;;;0.60;0.60;;;;;;;;;;5076909;28;20205;-84
2022/07/02 10:48:01;;;;;;;0.80;0.57;;;;;;;;;;5076872;28;20224;-84
2022/07/02 10:50:41;;;;;;;0.55;0.55;;;;;;;;;;5076970;28;20197;-85
2022/07/02 10:53:12;;;;;;;0.50;0.50;;;;;;;;;;5076725;28;20201;-83
2022/07/02 10:55:41;;;;;;;1.17;1.08;;;;;;;;;;5077309;28;20664;-84
2022/07/02 10:58:18;;;;;;;0.70;0.70;;;;;;;;;;5075939;28;20256;-84
2022/07/02 11:00:46;;;;;;;0.68;0.68;;;;;;;;;;5077503;28;20251;-85
2022/07/02 11:03:16;;;;;;;0.85;0.68;;;;;;;;;;5076560;28;20205;-84
2022/07/02 11:06:02;;;;;;;0.73;0.73;;;;;;;;;;5076960;28;20235;-84
2022/07/02 11:08:54;;;;;;;0.57;0.57;;;;;;;;;;5075662;28;20220;-83
2022/07/02 11:11:42;;;;;;;1.45;0.73;;;;;;;;;;5076524;28;20232;-82
2022/07/02 11:14:12;;;;;;;0.50;0.50;;;;;;;;;;5076344;28;20243;-83
2022/07/02 11:16:41;;;;;;;1.33;0.80;;;;;;;;;;5076818;28;20232;-83
2022/07/02 11:19:16;;;;;;;0.60;0.60;;;;;;;;;;5077177;28;20244;-83
2022/07/02 11:21:44;;;;;;;0.57;0.57;;;;;;;;;;5077808;28;20664;-83
2022/07/02 11:24:15;;;;;;;0.70;0.60;;;;;;;;;;5077462;28;20713;-83
2022/07/02 11:26:43;;;;;;;0.65;0.65;;;;;;;;;;5078025;28;20188;-84
2022/07/02 11:29:11;;;;;;;0.70;0.70;;;;;;;;;;5077394;28;20771;-82
2022/07/02 11:31:42;;;;;;;0.70;0.70;;;;;;;;;;5077355;28;20229;-83
2022/07/02 11:34:10;;;;;;;0.60;0.60;;;;;;;;;;5077451;28;20185;-83
2022/07/02 11:36:38;;;;;;;0.75;0.75;;;;;;;;;;5079736;28;20232;-83
2022/07/02 11:39:12;;;;;;;0.80;0.80;;;;;;;;;;5077535;28;20248;-83
2022/07/02 11:41:41;;;;;;;0.85;0.85;;;;;;;;;;5077824;28;20565;-82
2022/07/02 11:44:17;;;;;;;0.70;0.70;;;;;;;;;;5078314;28;20197;-84
2022/07/02 11:46:49;;;;;;;0.47;0.47;;;;;;;;;;5079517;28;20680;-83
2022/07/02 11:49:18;;;;;;;2.63;0.90;;;;;;;;;;5079232;28;20304;-83
2022/07/02 11:51:46;;;;;;;0.70;0.70;;;;;;;;;;5078853;28;20235;-84
2022/07/02 11:54:16;;;;;;;0.50;0.50;;;;;;;;;;5078510;28;20215;-84
2022/07/02 11:56:45;;;;;;;0.80;0.80;;;;;;;;;;5076834;28;20236;-84
2022/07/02 11:59:15;;;;;;;0.70;0.70;;;;;;;;;;5076614;28;20225;-84
2022/07/02 12:01:45;;;;;;;0.65;0.65;;;;;;;;;;5076293;28;20313;-84
2022/07/02 12:04:20;;;;;;;1.08;1.08;;;;;;;;;;5076154;28;20233;-83
2022/07/02 12:06:50;;;;;;;0.60;0.60;;;;;;;;;;5076383;28;20223;-84
2022/07/02 12:09:22;;;;;;;0.63;0.63;;;;;;;;;;5076083;28;20259;-84
2022/07/02 12:11:50;;;;;;;0.70;0.70;;;;;;;;;;5075243;28;20292;-83
2022/07/02 12:14:24;;;;;;;0.90;0.90;;;;;;;;;;5076223;28;20213;-84
2022/07/02 12:16:52;;;;;;;1.20;0.80;;;;;;;;;;5076816;28;20236;-84
2022/07/02 12:19:22;;;;;;;0.80;0.80;;;;;;;;;;5076014;28;20233;-83
2022/07/02 12:21:50;;;;;;;0.68;0.68;;;;;;;;;;5074931;28;20655;-83
2022/07/02 12:24:24;;;;;;;0.68;0.68;;;;;;;;;;5075893;28;20200;-83
2022/07/02 12:26:54;;;;;;;0.65;0.65;;;;;;;;;;5076051;28;20181;-83
2022/07/02 12:32:11;;;;;;;0.80;0.80;;;;;;;;;;5075240;28;20181;-83
2022/07/02 12:34:41;;;;;;;0.80;0.80;;;;;;;;;;5075607;28;20639;-83
2022/07/02 12:37:11;;;;;;;0.70;0.70;;;;;;;;;;5075516;28;20229;-84
2022/07/02 12:39:42;;;;;;;1.02;1.02;;;;;;;;;;5075259;28;20197;-83
2022/07/02 12:42:19;;;;;;;0.82;0.82;;;;;;;;;;5074987;28;20248;-83
2022/07/02 12:44:55;;;;;;;0.90;0.90;;;;;;;;;;5075630;28;20219;-83
2022/07/02 12:47:32;;;;;;;2.42;1.10;;;;;;;;;;5075248;28;20493;-83
2022/07/02 12:50:02;;;;;;;1.48;1.10;;;;;;;;;;5075187;28;20198;-83
2022/07/02 12:52:31;;;;;;;1.13;0.93;;;;;;;;;;5074409;28;20227;-83
2022/07/02 12:55:00;;;;;;;0.90;0.90;;;;;;;;;;5075632;28;20240;-83
2022/07/02 12:57:28;;;;;;;0.90;0.90;;;;;;;;;;5075545;28;20224;-83
2022/07/02 12:59:56;;;;;;;0.75;0.70;;;;;;;;;;5075972;28;20228;-82
2022/07/02 13:02:27;;;;;;;1.17;0.90;;;;;;;;;;5075124;28;20263;-83
2022/07/02 13:04:55;;;;;;;1.00;1.00;;;;;;;;;;5076693;28;20224;-84
2022/07/02 13:07:23;;;;;;;1.00;1.00;;;;;;;;;;5076826;28;20695;-83
2022/07/02 13:09:51;;;;;;;1.30;1.20;;;;;;;;;;5074811;28;20225;-83
2022/07/02 13:12:20;;;;;;;1.60;1.50;;;;;;;;;;5076441;28;20231;-83
2022/07/02 13:14:48;;;;;;;1.60;1.50;;;;;;;;;;5076734;28;20666;-83
2022/07/02 13:17:16;;;;;;;1.20;1.20;;;;;;;;;;5075116;28;20239;-83
2022/07/02 13:19:45;;;;;;;1.15;1.05;;;;;;;;;;5075653;28;20204;-83
2022/07/02 13:22:14;;;;;;;1.08;1.08;;;;;;;;;;5074555;28;20216;-84
2022/07/02 13:24:42;;;;;;;0.93;0.90;;;;;;;;;;5076041;28;20235;-82
2022/07/02 13:27:10;;;;;;;1.08;1.08;;;;;;;;;;5075571;28;20239;-83
2022/07/02 13:29:39;;;;;;;0.80;0.80;;;;;;;;;;5077068;28;20270;-84
2022/07/02 13:32:08;;;;;;;0.98;0.98;;;;;;;;;;5075606;28;20204;-83
2022/07/02 13:34:35;;;;;;;1.38;1.27;;;;;;;;;;5075942;28;20193;-82
2022/07/02 13:37:03;;;;;;;0.73;0.73;;;;;;;;;;5076052;28;20200;-83
2022/07/02 13:39:31;;;;;;;0.90;0.90;;;;;;;;;;5076251;28;20241;-81
2022/07/02 13:41:59;;;;;;;1.00;1.00;;;;;;;;;;5077223;28;20229;-82
2022/07/02 13:44:28;;;;;;;0.80;0.80;;;;;;;;;;5076658;28;20205;-81
2022/07/02 13:46:57;;;;;;;0.90;0.90;;;;;;;;;;5077972;28;20667;-83
2022/07/02 13:49:24;;;;;;;0.60;0.60;;;;;;;;;;5077034;28;20260;-83
2022/07/02 13:51:52;;;;;;;0.80;0.80;;;;;;;;;;5077127;28;20627;-82
2022/07/02 13:54:19;;;;;;;0.70;0.70;;;;;;;;;;5077184;28;20677;-82
2022/07/02 13:56:47;;;;;;;0.73;0.73;;;;;;;;;;5077000;28;20236;-82
2022/07/02 13:59:15;;;;;;;0.70;0.60;;;;;;;;;;5076166;28;20252;-82
2022/07/02 14:01:43;;;;;;;0.80;0.80;;;;;;;;;;5076274;28;20256;-82
2022/07/02 14:04:12;;;;;;;0.70;0.70;;;;;;;;;;5076041;28;20635;-81
2022/07/02 14:06:39;;;;;;;0.80;0.80;;;;;;;;;;5077389;28;20788;-83
2022/07/02 14:09:07;;;;;;;1.10;1.00;;;;;;;;;;5076127;28;20507;-84
2022/07/02 14:11:34;;;;;;;1.05;1.05;;;;;;;;;;5076336;28;20201;-83
2022/07/02 14:14:02;;;;;;;0.90;0.90;;;;;;;;;;5077419;28;20205;-82
2022/07/02 14:16:30;;;;;;;0.90;0.90;;;;;;;;;;5077364;28;20197;-82
2022/07/02 14:18:57;;;;;;;0.90;0.90;;;;;;;;;;5077388;28;20249;-83
2022/07/02 14:21:26;;;;;;;0.80;0.80;;;;;;;;;;5076995;28;20549;-82
2022/07/02 14:23:54;;;;;;;0.85;0.85;;;;;;;;;;5077281;28;20233;-82
2022/07/02 14:26:21;;;;;;;0.70;0.70;;;;;;;;;;5077890;28;20713;-82
2022/07/02 14:28:49;;;;;;;1.20;1.10;;;;;;;;;;5078455;28;20232;-83
2022/07/02 14:31:17;;;;;;;0.80;0.80;;;;;;;;;;5076909;28;20200;-82
2022/07/02 14:33:45;;;;;;;1.67;1.00;;;;;;;;;;5079474;28;20201;-81
2022/07/02 14:36:12;;;;;;;0.60;0.60;;;;;;;;;;5080644;28;20229;-81
2022/07/02 14:38:41;;;;;;;1.63;1.00;;;;;;;;;;5080414;28;20228;-83
2022/07/02 14:43:56;;;;;;;0.75;0.75;;;;;;;;;;5072583;28;20696;-83
2022/07/02 14:46:24;;;;;;;1.05;0.95;;;;;;;;;;5080138;28;20240;-82
2022/07/02 14:48:51;;;;;;;0.93;0.93;;;;;;;;;;5080882;28;20224;-81
2022/07/02 14:51:20;;;;;;;1.05;1.05;;;;;;;;;;5080520;28;20597;-81
2022/07/02 14:53:49;;;;;;;1.65;1.00;;;;;;;;;;5080730;28;20200;-83
2022/07/02 14:56:17;;;;;;;0.80;0.80;;;;;;;;;;5079487;28;20220;-83
2022/07/02 14:58:44;;;;;;;0.77;0.77;;;;;;;;;;5080081;28;20717;-82
2022/07/02 15:01:12;;;;;;;0.50;0.50;;;;;;;;;;5080086;28;20259;-83
2022/07/02 15:03:40;;;;;;;0.75;0.75;;;;;;;;;;5079741;28;20307;-83
2022/07/02 15:06:07;;;;;;;0.68;0.68;;;;;;;;;;5079815;28;20291;-83